Portada
METAR-TAF:

METAR-TAF

Aeroports :

Kōriyama, Japó

latitud: 37-24N, longitud: 140-23E, altitud: 372 m

Observació

L'informe es va fer fa 4 hores i 39 minuts, a les 11:00 UTC
Vent 3 kt del Est/Sud-Est, variant entre Est i Sud/Sud-Est
Temperatura 8°C
Humitat 71%
Pressió 1025 hPa
Visibilitat 10 km o més
Cel ennuvolat a una alçada de 4500 ft

METAR: RJSF 241100Z 11003KT 080V150 9999 BKN045 08/03 Q1025

Hora: 00:39 (15:39 UTC)

Pronòstic

L'informe es va fer fa 4 hores i 34 minuts, a les 11:05 UTC
Pronòstic vàlid del 24 a les 12 UTC al 25 a les 18 UTC
Vent 3 kt del Sud-Est
Visibilitat 10 km o més
Escasses núvols a una alçada de 1000 ft
Cel ennuvolat a una alçada de 2000 ft
Evolucionant progressivament
l' 24 a les 16 UTC al 24 a les 18 UTC
Vent 5 kt del Nord/Nord-Oest

TAF: RJSF 241105Z 2412/2518 14003KT 9999 FEW010 BKN020 BECMG 2416/2418 34005KT

Observacions i pronòstics meteorològics de més de 4000 aeroports (METAR i TAF).

Les estacions disponibles són els punts grocs i vermells al mapa.

Posi el ratolí al punt desitjat per veure el nom de l'estació.

Feu clic per veure les observacions i els pronòstics meteorològics.

Per canviar el mapa: feu clic els botons verds amb una creu de color negre per apropar; al botó verd amb un guió per allunyar la imatge; o en les fletxes verdes per a mapes adjacents.


METAR-TAF: